createdAt,value
2018-09-06T00:00:14.116Z,99254.13
2018-09-06T00:02:43.670Z,99252.69
2018-09-06T00:05:13.312Z,99252.45
2018-09-06T00:07:42.963Z,99252.69
2018-09-06T00:10:12.545Z,99263.25
2018-09-06T00:12:42.072Z,99257.27
2018-09-06T00:15:11.640Z,99256.84
2018-09-06T00:17:41.144Z,99261.84
2018-09-06T00:20:10.737Z,99257.21
2018-09-06T00:22:40.296Z,99256.00
2018-09-06T00:25:09.964Z,99252.02
2018-09-06T00:27:39.524Z,99246.31
2018-09-06T00:30:09.090Z,99246.81
2018-09-06T00:32:38.694Z,99249.27
2018-09-06T00:35:08.236Z,99245.58
2018-09-06T00:37:37.988Z,99250.38
2018-09-06T00:40:08.544Z,99253.45
2018-09-06T00:42:38.198Z,99254.27
2018-09-06T00:45:07.836Z,99243.69
2018-09-06T00:47:37.618Z,99251.25
2018-09-06T00:50:12.463Z,99245.74
2018-09-06T00:52:42.047Z,99241.00
2018-09-06T00:55:11.583Z,99252.02
2018-09-06T00:57:41.167Z,99247.62
2018-09-06T01:00:10.743Z,99244.27
2018-09-06T01:02:40.323Z,99243.94
2018-09-06T01:05:09.923Z,99240.52
2018-09-06T01:07:39.419Z,99242.39
2018-09-06T01:10:09.275Z,99230.44
2018-09-06T01:12:38.822Z,99235.57
2018-09-06T01:15:08.451Z,99235.14
2018-09-06T01:17:37.984Z,99235.14
2018-09-06T01:20:07.662Z,99237.25
2018-09-06T01:22:37.242Z,99230.38
2018-09-06T01:25:06.874Z,99231.89
2018-09-06T01:27:36.463Z,99228.63
2018-09-06T01:30:06.268Z,99242.08
2018-09-06T01:32:35.860Z,99232.95
2018-09-06T01:35:05.423Z,99240.95
2018-09-06T01:37:34.958Z,99229.23
2018-09-06T01:40:04.552Z,99226.11
2018-09-06T01:42:34.081Z,99231.11
2018-09-06T01:45:03.595Z,99227.05
2018-09-06T01:47:33.336Z,99223.49
2018-09-06T01:50:02.835Z,99226.55
2018-09-06T01:52:32.427Z,99230.17
2018-09-06T01:55:01.968Z,99225.88
2018-09-06T01:57:31.548Z,99231.89
2018-09-06T02:00:01.063Z,99230.81
2018-09-06T02:02:30.765Z,99232.50
2018-09-06T02:05:00.261Z,99232.26
2018-09-06T02:07:29.908Z,99225.19
2018-09-06T02:09:59.479Z,99227.69
2018-09-06T02:12:29.076Z,99229.00
2018-09-06T02:14:58.588Z,99230.75
2018-09-06T02:17:28.232Z,99232.13
2018-09-06T02:19:57.776Z,99231.44
2018-09-06T02:22:27.327Z,99221.85
2018-09-06T02:24:56.907Z,99223.06
2018-09-06T02:27:26.398Z,99228.92
2018-09-06T02:29:55.946Z,99217.47
2018-09-06T02:32:25.501Z,99216.73
2018-09-06T02:34:55.112Z,99212.11
2018-09-06T02:37:24.651Z,99218.05
2018-09-06T02:39:54.254Z,99209.98
2018-09-06T02:42:23.799Z,99202.03
2018-09-06T02:44:53.353Z,99210.11
2018-09-06T02:47:22.916Z,99211.29
2018-09-06T02:49:57.427Z,99208.59
2018-09-06T02:52:27.076Z,99214.66
2018-09-06T02:54:56.564Z,99208.97
2018-09-06T02:57:26.102Z,99204.34
2018-09-06T02:59:55.755Z,99208.61
2018-09-06T03:02:25.438Z,99200.97
2018-09-06T03:04:54.987Z,99204.86
2018-09-06T03:07:24.616Z,99199.73
2018-09-06T03:09:54.229Z,99106.06
2018-09-06T03:12:23.860Z,99210.61
2018-09-06T03:14:53.362Z,99217.25
2018-09-06T03:17:22.921Z,99209.61
2018-09-06T03:19:52.516Z,99210.61
2018-09-06T03:22:22.027Z,99207.86
2018-09-06T03:24:51.555Z,99203.92
2018-09-06T03:27:21.184Z,99206.53
2018-09-06T03:29:50.720Z,99204.55
2018-09-06T03:32:20.351Z,99199.99
2018-09-06T03:34:49.949Z,99207.52
2018-09-06T03:37:19.583Z,99210.80
2018-09-06T03:39:49.137Z,99213.15
2018-09-06T03:42:18.823Z,99218.19
2018-09-06T03:44:48.444Z,99219.05
2018-09-06T03:47:18.075Z,99220.02
2018-09-06T03:49:47.569Z,99216.94
2018-09-06T03:52:17.103Z,99231.63
2018-09-06T03:54:46.647Z,99233.38
2018-09-06T03:57:16.255Z,99237.86
2018-09-06T03:59:45.812Z,99237.36
2018-09-06T04:02:15.428Z,99239.81
2018-09-06T04:04:45.048Z,99239.81
2018-09-06T04:07:14.590Z,99245.81
2018-09-06T04:09:44.183Z,99248.34
2018-09-06T04:12:13.715Z,99254.84
2018-09-06T04:14:43.368Z,99251.83
2018-09-06T04:17:12.923Z,99241.29
2018-09-06T04:19:42.562Z,99256.25
2018-09-06T04:22:12.233Z,99254.37
2018-09-06T04:24:41.839Z,99255.20
2018-09-06T04:27:11.398Z,99251.38
2018-09-06T04:29:40.963Z,99258.96
2018-09-06T04:32:10.624Z,99242.11
2018-09-06T04:34:40.122Z,99251.77
2018-09-06T04:37:09.656Z,99258.44
2018-09-06T04:39:39.160Z,99259.06
2018-09-06T04:42:08.735Z,99262.48
2018-09-06T04:44:38.223Z,99259.34
2018-09-06T04:47:07.754Z,99267.23
2018-09-06T04:49:37.288Z,99268.63
2018-09-06T04:52:06.864Z,99276.74
2018-09-06T04:54:36.395Z,99271.68
2018-09-06T04:57:05.987Z,99276.65
2018-09-06T04:59:35.563Z,99279.69
2018-09-06T05:02:05.136Z,99271.44
2018-09-06T05:04:34.756Z,99275.97
2018-09-06T05:07:04.264Z,99281.92
2018-09-06T05:09:33.908Z,99285.58
2018-09-06T05:12:03.411Z,99281.62
2018-09-06T05:14:33.000Z,99279.13
2018-09-06T05:17:02.573Z,99280.82
2018-09-06T05:19:32.067Z,99281.24
2018-09-06T05:22:01.650Z,99278.88
2018-09-06T05:24:31.366Z,99282.22
2018-09-06T05:27:00.936Z,99291.06
2018-09-06T05:29:30.453Z,99281.53
2018-09-06T05:32:00.116Z,99282.24
2018-09-06T05:34:29.634Z,99292.66
2018-09-06T05:36:59.183Z,99291.73
2018-09-06T05:39:28.676Z,99287.52
2018-09-06T05:41:58.268Z,99287.52
2018-09-06T05:44:27.853Z,99291.66
2018-09-06T05:46:57.568Z,99279.08
2018-09-06T05:49:27.171Z,99291.09
2018-09-06T05:51:56.791Z,99297.09
2018-09-06T05:54:26.322Z,99298.48
2018-09-06T05:56:55.872Z,99297.31
2018-09-06T05:59:25.579Z,99295.02
2018-09-06T06:01:55.084Z,99289.42
2018-09-06T06:04:24.680Z,99294.84
2018-09-06T06:06:54.195Z,99293.94
2018-09-06T06:09:23.728Z,99290.73
2018-09-06T06:11:53.345Z,99301.30
2018-09-06T06:14:22.931Z,99295.55
2018-09-06T06:16:52.480Z,99291.28
2018-09-06T06:19:22.018Z,99312.30
2018-09-06T06:21:51.515Z,99307.96
2018-09-06T06:24:21.107Z,99306.55
2018-09-06T06:26:50.613Z,99315.66
2018-09-06T06:29:20.157Z,99320.98
2018-09-06T06:31:49.721Z,99323.97
2018-09-06T06:34:19.323Z,99315.72
2018-09-06T06:36:48.815Z,99310.88
2018-09-06T06:39:18.520Z,99316.61
2018-09-06T06:41:48.059Z,99317.58
2018-09-06T06:44:17.644Z,99318.30
2018-09-06T06:46:47.164Z,99315.19
2018-09-06T06:49:17.041Z,99304.66
2018-09-06T06:51:46.584Z,99304.53
2018-09-06T06:54:16.262Z,99305.27
2018-09-06T06:56:45.888Z,99310.38
2018-09-06T06:59:15.448Z,99321.48
2018-09-06T07:01:45.023Z,99302.97
2018-09-06T07:04:14.737Z,99303.80
2018-09-06T07:06:44.288Z,99302.75
2018-09-06T07:09:13.808Z,99306.67
2018-09-06T07:11:43.384Z,99315.70
2018-09-06T07:14:12.961Z,99317.30
2018-09-06T07:16:42.532Z,99312.21
2018-09-06T07:19:12.131Z,99314.97
2018-09-06T07:21:41.699Z,99309.22
2018-09-06T07:24:11.232Z,99297.41
2018-09-06T07:26:40.824Z,99304.80
2018-09-06T07:29:10.363Z,99303.55
2018-09-06T07:31:39.912Z,99313.84
2018-09-06T07:34:09.476Z,99313.84
2018-09-06T07:36:39.057Z,99308.50
2018-09-06T07:39:09.828Z,99317.75
2018-09-06T07:41:39.380Z,99316.38
2018-09-06T07:44:08.896Z,99314.64
2018-09-06T07:46:38.585Z,99314.28
2018-09-06T07:49:08.139Z,99308.05
2018-09-06T07:51:37.731Z,99309.32
2018-09-06T07:54:07.370Z,99313.92
2018-09-06T07:56:36.899Z,99316.36
2018-09-06T07:59:06.637Z,99308.05
2018-09-06T08:01:36.185Z,99299.14
2018-09-06T08:04:05.811Z,99291.59
2018-09-06T08:06:35.439Z,99311.50
2018-09-06T08:09:07.092Z,99296.80
2018-09-06T08:11:36.743Z,99304.05
2018-09-06T08:14:06.351Z,99309.39
2018-09-06T08:16:36.351Z,99309.91
2018-09-06T08:19:06.133Z,99311.84
2018-09-06T08:21:35.720Z,99313.40
2018-09-06T08:24:05.341Z,99319.84
2018-09-06T08:26:34.895Z,99314.25
2018-09-06T08:29:04.431Z,99310.23
2018-09-06T08:31:34.066Z,99312.86
2018-09-06T08:34:03.671Z,99326.67
2018-09-06T08:36:33.237Z,99320.52
2018-09-06T08:39:02.908Z,99312.92
2018-09-06T08:41:32.403Z,99302.97
2018-09-06T08:44:01.946Z,99307.59
2018-09-06T08:46:31.507Z,99311.86
2018-09-06T08:49:01.199Z,99310.33
2018-09-06T08:51:30.876Z,99308.29
2018-09-06T08:54:00.398Z,99301.02
2018-09-06T08:56:29.980Z,99306.50
2018-09-06T08:58:59.560Z,99298.31
2018-09-06T09:01:34.203Z,99305.28
2018-09-06T09:04:03.717Z,99301.97
2018-09-06T09:06:33.255Z,99302.33
2018-09-06T09:09:02.917Z,99295.95
2018-09-06T09:11:32.576Z,99296.92
2018-09-06T09:14:02.212Z,99295.65
2018-09-06T09:16:31.797Z,99293.47
2018-09-06T09:19:01.452Z,99295.03
2018-09-06T09:21:31.088Z,99286.73
2018-09-06T09:24:00.772Z,99280.56
2018-09-06T09:26:30.391Z,99279.25
2018-09-06T09:28:59.952Z,99285.10
2018-09-06T09:31:29.569Z,99279.97
2018-09-06T09:33:59.334Z,99285.41
2018-09-06T09:36:29.016Z,99282.33
2018-09-06T09:38:58.607Z,99268.47
2018-09-06T09:41:28.159Z,99272.94
2018-09-06T09:43:57.717Z,99269.50
2018-09-06T09:51:24.664Z,99256.36
2018-09-06T09:53:54.347Z,99254.13
2018-09-06T09:56:23.859Z,99250.28
2018-09-06T09:58:53.395Z,99240.68
2018-09-06T10:01:23.035Z,99244.26
2018-09-06T10:03:57.656Z,99241.70
2018-09-06T10:06:32.351Z,99239.56
2018-09-06T10:09:06.856Z,99236.85
2018-09-06T10:11:36.480Z,99241.27
2018-09-06T10:14:06.023Z,99243.16
2018-09-06T10:16:35.547Z,99240.63
2018-09-06T10:19:05.139Z,99240.56
2018-09-06T10:21:34.675Z,99245.08
2018-09-06T10:24:04.417Z,99234.45
2018-09-06T10:26:34.093Z,99241.00
2018-09-06T10:29:03.660Z,99236.80
2018-09-06T10:31:33.764Z,99233.27
2018-09-06T10:34:03.327Z,99233.41
2018-09-06T10:36:33.256Z,99239.37
2018-09-06T10:39:02.948Z,99144.92
2018-09-06T10:41:32.563Z,99231.21
2018-09-06T10:44:02.174Z,99224.26
2018-09-06T10:46:31.816Z,99224.42
2018-09-06T10:49:01.444Z,99223.67
2018-09-06T10:51:31.043Z,99218.59
2018-09-06T10:54:00.686Z,99214.30
2018-09-06T10:56:30.463Z,99214.53
2018-09-06T10:59:00.051Z,99205.50
2018-09-06T11:01:29.757Z,99211.44
2018-09-06T11:03:59.453Z,99205.05
2018-09-06T11:06:29.162Z,99203.97
2018-09-06T11:08:58.835Z,99214.23
2018-09-06T11:11:28.415Z,99203.77
2018-09-06T11:13:57.915Z,99202.39
2018-09-06T11:16:27.650Z,99205.23
2018-09-06T11:18:57.204Z,99204.61
2018-09-06T11:21:26.820Z,99210.11
2018-09-06T11:23:56.278Z,99198.46
2018-09-06T11:26:25.882Z,99202.92
2018-09-06T11:28:55.469Z,99192.94
2018-09-06T11:31:25.070Z,99195.66
2018-09-06T11:33:54.583Z,99197.72
2018-09-06T11:36:24.147Z,99191.86
2018-09-06T11:38:53.761Z,99200.94
2018-09-06T11:41:23.325Z,99195.14
2018-09-06T11:43:52.936Z,99196.41
2018-09-06T11:46:22.601Z,99196.69
2018-09-06T11:48:52.293Z,99192.66
2018-09-06T11:51:21.897Z,99190.72
2018-09-06T11:53:51.471Z,99186.61
2018-09-06T11:56:21.052Z,99181.62
2018-09-06T11:58:50.619Z,99178.75
2018-09-06T12:01:20.396Z,99173.17
2018-09-06T12:03:50.267Z,99170.20
2018-09-06T12:06:19.949Z,99171.51
2018-09-06T12:08:49.553Z,99169.92
2018-09-06T12:11:19.107Z,99166.06
2018-09-06T12:13:48.713Z,99166.11
2018-09-06T12:16:18.283Z,99165.91
2018-09-06T12:18:47.815Z,99160.09
2018-09-06T12:21:17.419Z,99154.14
2018-09-06T12:23:46.933Z,99153.66
2018-09-06T12:26:16.472Z,99150.30
2018-09-06T12:28:46.001Z,99148.20
2018-09-06T12:31:15.564Z,99149.34
2018-09-06T12:33:45.159Z,99152.30
2018-09-06T12:36:14.856Z,99150.83
2018-09-06T12:38:44.451Z,99149.66
2018-09-06T12:41:14.111Z,99148.63
2018-09-06T12:43:44.120Z,99143.14
2018-09-06T12:46:13.760Z,99143.58
2018-09-06T12:48:43.529Z,99142.44
2018-09-06T12:51:13.312Z,99144.86
2018-09-06T12:53:42.871Z,99145.27
2018-09-06T12:56:12.524Z,99135.98
2018-09-06T12:58:42.173Z,99144.53
2018-09-06T13:01:12.890Z,99140.31
2018-09-06T13:03:42.828Z,99147.00
2018-09-06T13:06:12.413Z,99143.58
2018-09-06T13:08:42.025Z,99141.13
2018-09-06T13:11:11.640Z,99138.08
2018-09-06T13:13:41.386Z,99139.95
2018-09-06T13:16:10.898Z,99138.61
2018-09-06T13:18:40.514Z,99135.39
2018-09-06T13:21:10.077Z,99136.45
2018-09-06T13:23:39.636Z,99131.73
2018-09-06T13:26:09.209Z,99136.50
2018-09-06T13:28:38.902Z,99142.74
2018-09-06T13:31:08.535Z,99133.42
2018-09-06T13:33:38.083Z,99129.88
2018-09-06T13:36:07.596Z,99129.74
2018-09-06T13:38:37.107Z,99129.08
2018-09-06T13:41:07.592Z,99129.67
2018-09-06T13:43:37.158Z,99123.86
2018-09-06T13:46:06.798Z,99122.20
2018-09-06T13:48:36.381Z,99122.20
2018-09-06T13:51:06.207Z,99118.19
2018-09-06T13:53:35.711Z,99110.83
2018-09-06T13:56:05.335Z,99112.79
2018-09-06T13:58:34.844Z,99103.59
2018-09-06T14:01:04.423Z,99103.75
2018-09-06T14:03:33.992Z,99100.53
2018-09-06T14:06:03.638Z,99108.47
2018-09-06T14:08:33.183Z,99112.12
2018-09-06T14:11:02.719Z,99114.27
2018-09-06T14:13:32.268Z,99118.02
2018-09-06T14:16:01.867Z,99116.34
2018-09-06T14:18:31.499Z,99111.26
2018-09-06T14:21:01.159Z,99102.56
2018-09-06T14:23:30.688Z,99106.88
2018-09-06T14:26:00.193Z,99100.20
2018-09-06T14:28:29.752Z,99103.22
2018-09-06T14:30:59.308Z,99099.03
2018-09-06T14:33:28.918Z,99095.92
2018-09-06T14:35:58.491Z,99089.91
2018-09-06T14:38:28.047Z,99096.81
2018-09-06T14:40:57.552Z,99090.02
2018-09-06T14:43:27.137Z,99086.95
2018-09-06T14:45:56.744Z,99092.73
2018-09-06T14:48:26.284Z,99089.88
2018-09-06T14:50:55.877Z,99091.33
2018-09-06T14:53:25.354Z,99085.55
2018-09-06T14:55:54.888Z,99086.63
2018-09-06T14:58:24.399Z,99084.28
2018-09-06T15:00:53.944Z,99089.59
2018-09-06T15:03:23.435Z,99079.05
2018-09-06T15:05:52.966Z,99083.95
2018-09-06T15:08:22.500Z,99077.69
2018-09-06T15:10:52.048Z,99081.98
2018-09-06T15:13:21.641Z,99087.94
2018-09-06T15:15:51.204Z,99077.03
2018-09-06T15:18:20.745Z,99078.23
2018-09-06T15:20:50.296Z,99080.16
2018-09-06T15:23:19.869Z,99079.02
2018-09-06T15:25:49.416Z,99072.78
2018-09-06T15:28:18.954Z,99074.56
2018-09-06T15:30:48.576Z,99077.72
2018-09-06T15:33:18.091Z,99086.63
2018-09-06T15:35:47.617Z,99091.31
2018-09-06T15:38:17.120Z,99086.30
2018-09-06T15:40:46.695Z,99086.69
2018-09-06T15:43:16.231Z,99089.69
2018-09-06T15:45:45.732Z,99094.46
2018-09-06T15:48:15.315Z,99086.16
2018-09-06T15:50:44.824Z,99088.63
2018-09-06T15:53:14.360Z,99029.58
2018-09-06T15:55:43.979Z,99098.38
2018-09-06T15:58:13.484Z,99107.64
2018-09-06T16:00:43.079Z,99104.78
2018-09-06T16:03:12.640Z,99112.24
2018-09-06T16:05:42.239Z,99118.13
2018-09-06T16:08:11.735Z,99116.24
2018-09-06T16:10:41.280Z,99116.41
2018-09-06T16:13:10.778Z,99114.73
2018-09-06T16:15:40.312Z,99115.65
2018-09-06T16:18:09.931Z,99120.78
2018-09-06T16:20:39.502Z,99127.70
2018-09-06T16:23:09.144Z,99125.66
2018-09-06T16:25:38.666Z,99132.77
2018-09-06T16:28:08.261Z,99130.30
2018-09-06T16:30:37.784Z,99133.48
2018-09-06T16:33:07.355Z,99129.66
2018-09-06T16:35:36.897Z,99138.96
2018-09-06T16:38:06.503Z,99132.80
2018-09-06T16:40:36.064Z,99130.31
2018-09-06T16:43:05.828Z,99135.98
2018-09-06T16:45:35.412Z,99141.19
2018-09-06T16:48:04.988Z,99138.11
2018-09-06T16:50:34.487Z,99141.08
2018-09-06T16:53:04.084Z,99142.66
2018-09-06T16:55:33.739Z,99143.27
2018-09-06T16:58:03.361Z,99146.00
2018-09-06T17:00:32.924Z,99151.09
2018-09-06T17:03:02.477Z,99150.47
2018-09-06T17:05:32.072Z,99154.98
2018-09-06T17:08:01.599Z,99150.40
2018-09-06T17:10:31.112Z,99152.30
2018-09-06T17:13:00.720Z,99150.00
2018-09-06T17:15:30.327Z,99158.59
2018-09-06T17:17:59.982Z,99162.77
2018-09-06T17:20:29.651Z,99166.74
2018-09-06T17:22:59.231Z,99164.00
2018-09-06T17:25:28.771Z,99165.75
2018-09-06T17:27:58.308Z,99171.89
2018-09-06T17:30:27.798Z,99170.30
2018-09-06T17:32:57.339Z,99179.56
2018-09-06T17:35:26.893Z,99186.68
2018-09-06T17:37:56.484Z,99183.58
2018-09-06T17:40:26.072Z,99188.91
2018-09-06T17:42:55.560Z,99191.89
2018-09-06T17:45:25.196Z,99193.86
2018-09-06T17:47:54.810Z,99196.62
2018-09-06T17:50:24.399Z,99194.30
2018-09-06T17:52:54.091Z,99194.66
2018-09-06T17:55:23.802Z,99191.43
2018-09-06T17:57:53.328Z,99198.39
2018-09-06T18:00:23.031Z,99202.31
2018-09-06T18:02:52.599Z,99201.17
2018-09-06T18:05:22.184Z,99207.28
2018-09-06T18:07:51.855Z,99207.28
2018-09-06T18:10:21.420Z,99205.78
2018-09-06T18:12:51.044Z,99208.30
2018-09-06T18:15:20.702Z,99208.16
2018-09-06T18:17:50.512Z,99213.48
2018-09-06T18:20:19.971Z,99212.75
2018-09-06T18:22:49.531Z,99217.23
2018-09-06T18:25:19.307Z,99221.11
2018-09-06T18:27:48.955Z,99215.11
2018-09-06T18:30:18.672Z,99222.28
2018-09-06T18:32:48.263Z,99223.20
2018-09-06T18:35:17.831Z,99223.61
2018-09-06T18:37:47.328Z,99223.36
2018-09-06T18:40:16.856Z,99236.03
2018-09-06T18:42:46.551Z,99229.59
2018-09-06T18:45:16.217Z,99233.73
2018-09-06T18:47:45.936Z,99240.95
2018-09-06T18:50:15.688Z,99240.88
2018-09-06T18:52:45.332Z,99246.27
2018-09-06T18:55:14.874Z,99247.25
2018-09-06T18:57:44.440Z,99252.78
2018-09-06T19:00:14.341Z,99247.00
2018-09-06T19:02:43.948Z,99251.36
2018-09-06T19:05:13.483Z,99248.78
2018-09-06T19:07:43.147Z,99246.92
2018-09-06T19:10:12.698Z,99252.70
2018-09-06T19:12:42.248Z,99250.52
2018-09-06T19:15:11.812Z,99248.08
2018-09-06T19:17:41.399Z,99242.30
2018-09-06T19:20:11.005Z,99239.16
2018-09-06T19:22:40.625Z,99242.76
2018-09-06T19:25:10.215Z,99236.45
2018-09-06T19:27:39.721Z,99242.84
2018-09-06T19:30:09.376Z,99233.94
2018-09-06T19:32:38.992Z,99242.24
2018-09-06T19:35:08.520Z,99247.82
2018-09-06T19:37:38.057Z,99246.61
2018-09-06T19:40:07.636Z,99250.02
2018-09-06T19:42:37.166Z,99244.61
2018-09-06T19:45:07.034Z,99238.53
2018-09-06T19:47:36.567Z,99242.15
2018-09-06T19:50:06.256Z,99241.25
2018-09-06T19:52:35.880Z,99246.41
2018-09-06T19:55:05.552Z,99246.05
2018-09-06T19:57:35.445Z,99239.71
2018-09-06T20:00:05.896Z,99234.98
2018-09-06T20:02:35.536Z,99238.33
2018-09-06T20:05:05.095Z,99243.34
2018-09-06T20:07:34.629Z,99239.89
2018-09-06T20:10:04.320Z,99246.63
2018-09-06T20:12:33.912Z,99240.14
2018-09-06T20:15:03.457Z,99242.20
2018-09-06T20:17:32.955Z,99240.25
2018-09-06T20:20:02.546Z,99246.78
2018-09-06T20:22:32.039Z,99248.16
2018-09-06T20:25:01.634Z,99251.42
2018-09-06T20:27:31.221Z,99251.63
2018-09-06T20:30:00.800Z,99251.58
2018-09-06T20:32:30.364Z,99246.80
2018-09-06T20:34:59.959Z,99249.14
2018-09-06T20:37:29.469Z,99246.25
2018-09-06T20:39:59.101Z,99241.05
2018-09-06T20:42:28.595Z,99246.80
2018-09-06T20:44:58.141Z,99241.91
2018-09-06T20:47:27.635Z,99248.50
2018-09-06T20:49:57.244Z,99254.71
2018-09-06T20:52:26.820Z,99249.22
2018-09-06T20:54:56.425Z,99247.59
2018-09-06T20:57:25.960Z,99245.37
2018-09-06T20:59:55.695Z,99246.84
2018-09-06T21:02:25.772Z,99252.39
2018-09-06T21:04:55.347Z,99249.24
2018-09-06T21:07:24.960Z,99257.11
2018-09-06T21:09:54.527Z,99250.94
2018-09-06T21:12:24.055Z,99251.27
2018-09-06T21:14:53.595Z,99257.17
2018-09-06T21:17:23.127Z,99257.44
2018-09-06T21:19:52.831Z,99256.80
2018-09-06T21:22:22.383Z,99261.17
2018-09-06T21:24:52.056Z,99262.01
2018-09-06T21:27:21.613Z,99259.56
2018-09-06T21:29:51.274Z,99258.28
2018-09-06T21:32:20.791Z,99262.97
2018-09-06T21:34:50.480Z,99261.53
2018-09-06T21:37:20.018Z,99263.22
2018-09-06T21:39:49.560Z,99260.19
2018-09-06T21:42:19.102Z,99163.41
2018-09-06T21:44:48.664Z,99267.98
2018-09-06T21:47:18.251Z,99264.73
2018-09-06T21:49:48.048Z,99261.44
2018-09-06T21:52:17.659Z,99258.02
2018-09-06T21:54:47.161Z,99256.47
2018-09-06T21:57:16.757Z,99253.87
2018-09-06T21:59:46.347Z,99261.09
2018-09-06T22:02:20.995Z,99262.25
2018-09-06T22:04:50.529Z,99262.16
2018-09-06T22:07:20.031Z,99263.38
2018-09-06T22:09:50.083Z,99263.77
2018-09-06T22:12:20.351Z,99253.97
2018-09-06T22:14:51.256Z,99253.55
2018-09-06T22:17:20.865Z,99253.80
2018-09-06T22:19:50.663Z,99248.12
2018-09-06T22:22:20.253Z,99249.00
2018-09-06T22:24:49.811Z,99242.11
2018-09-06T22:27:19.640Z,99249.94
2018-09-06T22:29:49.221Z,99242.16
2018-09-06T22:32:18.803Z,99235.14
2018-09-06T22:34:48.295Z,99238.95
2018-09-06T22:37:17.870Z,99242.03
2018-09-06T22:39:47.406Z,99239.44
2018-09-06T22:42:16.943Z,99233.35
2018-09-06T22:44:46.531Z,99237.57
2018-09-06T22:47:16.091Z,99237.31
2018-09-06T22:49:45.654Z,99230.59
2018-09-06T22:52:15.211Z,99231.56
2018-09-06T22:54:45.047Z,99235.60
2018-09-06T22:57:14.576Z,99232.93
2018-09-06T22:59:44.170Z,99233.90
2018-09-06T23:02:13.664Z,99223.98
2018-09-06T23:04:43.268Z,99123.69
2018-09-06T23:07:12.863Z,99223.66
2018-09-06T23:09:42.415Z,99221.31
2018-09-06T23:12:11.971Z,99214.60
2018-09-06T23:14:41.519Z,99218.54
2018-09-06T23:17:11.039Z,99216.70
2018-09-06T23:19:40.590Z,99221.98
2018-09-06T23:22:10.136Z,99218.57
2018-09-06T23:24:39.688Z,99224.98
2018-09-06T23:27:09.191Z,99218.67
2018-09-06T23:29:38.736Z,99220.37
2018-09-06T23:32:08.265Z,99217.91
2018-09-06T23:34:37.787Z,99215.81
2018-09-06T23:37:07.327Z,99212.71
2018-09-06T23:39:36.927Z,99215.95
2018-09-06T23:42:06.504Z,99219.23
2018-09-06T23:44:36.056Z,99118.44
2018-09-06T23:47:05.616Z,99220.27
2018-09-06T23:49:35.137Z,99218.00
2018-09-06T23:52:04.702Z,99224.84
2018-09-06T23:54:34.208Z,99227.59
2018-09-06T23:57:03.742Z,99224.58
2018-09-06T23:59:33.236Z,99222.39
